Time;durP1;ratioP1;P1;durP2;ratioP2;P2;SDS_P1;SDS_P2;PMS_P1;PMS_P2;Temp;Humidity;BMP_temperature;BMP_pressure;BME280_temperature;BME280_humidity;BME280_pressure;Samples;Min_cycle;Max_cycle;Signal;HPM_P1;HPM_P2
2024/01/24 00:00:07;;;;;;;4.22;1.83;;;7.00;99.90;;;;;;5063339;28;20396;-77
2024/01/24 00:02:32;;;;;;;4.85;2.55;;;7.10;99.90;;;;;;5080921;28;20329;-78
2024/01/24 00:04:58;;;;;;;7.38;2.95;;;7.10;99.90;;;;;;5062854;28;20036;-77
2024/01/24 00:07:24;;;;;;;3.97;1.60;;;6.90;99.90;;;;;;5080795;28;20182;-76
2024/01/24 00:09:52;;;;;;;3.45;2.17;;;6.90;99.90;;;;;;5062307;28;20465;-76
2024/01/24 00:12:17;;;;;;;6.85;1.65;;;6.70;99.90;;;;;;5080537;28;20020;-76
2024/01/24 00:14:43;;;;;;;2.40;1.50;;;6.70;99.90;;;;;;5063004;28;20080;-75
2024/01/24 00:17:09;;;;;;;5.20;2.30;;;6.70;99.90;;;;;;5081153;28;20040;-77
2024/01/24 00:19:34;;;;;;;2.05;1.50;;;6.70;99.90;;;;;;5081198;28;20332;-76
2024/01/24 00:22:00;;;;;;;5.53;1.40;;;6.80;99.90;;;;;;5080852;28;20024;-77
2024/01/24 00:24:26;;;;;;;4.05;2.00;;;6.90;99.90;;;;;;5081162;28;20044;-76
2024/01/24 00:26:51;;;;;;;4.68;1.80;;;6.80;99.90;;;;;;5050248;28;20028;-76
2024/01/24 00:29:17;;;;;;;7.07;1.90;;;6.90;99.90;;;;;;5041925;28;20128;-77
2024/01/24 00:31:43;;;;;;;13.10;3.85;;;6.80;99.90;;;;;;5070884;28;20098;-76
2024/01/24 00:34:09;;;;;;;10.55;4.68;;;6.80;99.90;;;;;;5080058;28;20074;-77
2024/01/24 00:36:34;;;;;;;20.40;5.93;;;7.00;99.90;;;;;;5052752;28;20049;-77
2024/01/24 00:39:01;;;;;;;12.13;5.05;;;6.90;99.90;;;;;;5060730;28;20049;-77
2024/01/24 00:41:30;;;;;;;16.48;7.22;;;7.00;99.90;;;;;;5050447;28;20052;-77
2024/01/24 00:43:56;;;;;;;17.52;7.07;;;7.00;99.90;;;;;;5060627;28;20316;-76
2024/01/24 00:46:45;;;;;;;16.88;7.13;;;6.90;99.90;;;;;;5079956;28;20028;-77
2024/01/24 00:49:12;;;;;;;19.43;6.97;;;7.00;99.90;;;;;;5061769;28;20025;-77
2024/01/24 00:51:41;;;;;;;13.70;5.82;;;7.10;99.90;;;;;;5062588;28;20502;-77
2024/01/24 00:54:07;;;;;;;12.25;4.20;;;7.20;99.90;;;;;;5080239;28;20373;-77
2024/01/24 00:56:36;;;;;;;19.02;7.03;;;7.30;99.90;;;;;;5054154;28;20116;-77
2024/01/24 00:59:04;;;;;;;17.80;5.38;;;7.50;99.90;;;;;;5041848;28;20440;-78
2024/01/24 01:01:30;;;;;;;15.23;6.53;;;7.50;99.90;;;;;;5067571;28;20043;-77
2024/01/24 01:03:55;;;;;;;10.90;5.28;;;7.60;99.90;;;;;;5061441;28;20457;-76
2024/01/24 01:06:22;;;;;;;9.02;3.70;;;7.80;99.90;;;;;;5079081;28;20380;-77
2024/01/24 01:08:48;;;;;;;4.90;2.08;;;8.00;99.90;;;;;;5079926;28;20047;-78
2024/01/24 01:11:14;;;;;;;9.00;3.95;;;8.30;99.90;;;;;;5079906;28;20021;-78
2024/01/24 01:13:43;;;;;;;2.42;1.70;;;8.80;99.90;;;;;;5078563;28;20299;-78
2024/01/24 01:16:09;;;;;;;3.63;1.67;;;9.00;99.90;;;;;;5061840;28;20036;-76
2024/01/24 01:18:34;;;;;;;2.25;1.35;;;9.20;99.90;;;;;;5079454;28;20027;-76
2024/01/24 01:21:00;;;;;;;1.70;0.82;;;9.30;99.90;;;;;;5061809;28;20095;-79
2024/01/24 01:23:26;;;;;;;2.22;1.48;;;9.50;99.90;;;;;;5061193;28;20024;-77
2024/01/24 01:25:53;;;;;;;2.10;1.42;;;9.70;99.90;;;;;;5079691;28;20050;-77
2024/01/24 01:28:18;;;;;;;0.60;0.30;;;9.90;99.90;;;;;;5077481;28;20055;-78
2024/01/24 01:30:44;;;;;;;0.52;0.35;;;10.20;99.90;;;;;;5061611;28;20024;-77
2024/01/24 01:33:10;;;;;;;1.17;0.20;;;10.50;99.90;;;;;;5078916;28;20071;-78
2024/01/24 01:35:36;;;;;;;1.55;0.60;;;10.80;99.90;;;;;;5079211;28;20021;-77
2024/01/24 01:45:57;;;;;;;2.08;0.22;;;11.20;99.90;;;;;;4920728;29;20689;-77
2024/01/24 02:05:53;;;;;;;3.10;0.60;;;11.10;99.90;;;;;;4874300;29;20040;-77
2024/01/24 02:08:24;;;;;;;0.47;0.40;;;10.90;99.90;;;;;;4901668;29;20082;-77
2024/01/24 02:10:50;;;;;;;0.32;0.20;;;10.90;99.90;;;;;;4970548;28;20048;-77
2024/01/24 02:13:36;;;;;;;0.75;0.32;;;10.80;99.90;;;;;;5083531;28;20091;-77
2024/01/24 02:16:06;;;;;;;0.88;0.30;;;10.60;99.90;;;;;;5082834;28;20098;-78
2024/01/24 02:18:32;;;;;;;3.25;0.20;;;10.60;99.90;;;;;;5064608;28;20258;-77
2024/01/24 02:20:58;;;;;;;0.57;0.22;;;10.60;99.90;;;;;;5083243;28;20025;-77
2024/01/24 02:23:25;;;;;;;4.15;0.73;;;10.80;99.90;;;;;;5082753;28;20012;-76
2024/01/24 02:25:52;;;;;;;2.08;0.50;;;11.40;99.90;;;;;;5064564;28;20275;-77
2024/01/24 02:28:18;;;;;;;0.20;0.20;;;11.80;99.90;;;;;;5064638;28;20073;-77
2024/01/24 02:30:50;;;;;;;1.58;0.40;;;12.00;99.90;;;;;;5082773;28;20357;-77
2024/01/24 02:33:16;;;;;;;0.32;0.30;;;12.00;99.90;;;;;;5064645;28;20095;-77
2024/01/24 02:49:22;;;;;;;2.38;0.88;;;11.60;99.90;;;;;;4940322;28;20125;-77
2024/01/24 02:51:48;;;;;;;0.80;0.50;;;11.40;99.90;;;;;;5082327;28;20017;-77
2024/01/24 03:02:08;;;;;;;1.05;0.20;;;11.30;99.90;;;;;;4940915;29;20050;-77
2024/01/24 03:05:09;;;;;;;1.02;0.57;;;11.30;99.90;;;;;;4874381;29;20040;-77
2024/01/24 03:09:18;;;;;;;3.05;0.40;;;11.40;99.90;;;;;;4896094;29;20117;-77
2024/01/24 03:22:27;;;;;;;2.97;0.40;;;11.10;99.90;;;;;;4818278;29;20057;-78
2024/01/24 03:24:59;;;;;;;2.85;0.38;;;10.90;99.90;;;;;;4905455;29;20126;-78
2024/01/24 03:27:45;;;;;;;0.80;0.40;;;10.80;99.90;;;;;;4934668;28;20111;-77
2024/01/24 03:30:11;;;;;;;5.10;0.40;;;10.70;99.90;;;;;;5034256;28;20023;-78
2024/01/24 03:32:37;;;;;;;1.75;0.45;;;10.70;99.90;;;;;;5068936;28;20202;-77
2024/01/24 03:35:03;;;;;;;0.32;0.20;;;10.90;99.90;;;;;;5054081;28;20474;-77
2024/01/24 03:37:32;;;;;;;2.42;0.68;;;11.10;99.90;;;;;;5054006;28;20028;-77
2024/01/24 03:39:57;;;;;;;1.98;0.65;;;11.10;99.90;;;;;;5053914;28;20115;-78
2024/01/24 03:42:23;;;;;;;2.05;0.40;;;11.40;99.90;;;;;;5071889;28;20096;-77
2024/01/24 03:44:49;;;;;;;0.30;0.30;;;11.70;99.90;;;;;;5072081;28;20093;-77
2024/01/24 03:47:15;;;;;;;0.75;0.28;;;11.90;99.90;;;;;;5053761;28;20179;-77
2024/01/24 03:49:41;;;;;;;1.15;0.20;;;12.00;99.90;;;;;;5071989;28;20495;-78
2024/01/24 03:52:06;;;;;;;0.68;0.43;;;12.20;99.90;;;;;;5053863;28;20029;-77
2024/01/24 03:54:32;;;;;;;0.98;0.57;;;12.20;99.90;;;;;;5053490;28;20051;-78
2024/01/24 03:56:58;;;;;;;1.55;0.20;;;12.30;99.90;;;;;;5053287;28;20032;-78
2024/01/24 03:59:23;;;;;;;0.20;0.20;;;12.30;99.90;;;;;;5053595;28;20024;-77
2024/01/24 04:01:49;;;;;;;2.72;0.40;;;12.30;99.90;;;;;;5071611;28;20393;-77
2024/01/24 04:04:14;;;;;;;2.00;0.30;;;12.30;99.90;;;;;;5071416;28;20508;-77
2024/01/24 04:06:40;;;;;;;1.60;0.32;;;12.40;99.90;;;;;;5053577;28;20420;-77
2024/01/24 04:09:06;;;;;;;2.25;0.38;;;12.50;99.90;;;;;;5053465;28;20044;-76
2024/01/24 04:11:32;;;;;;;3.30;0.35;;;12.60;99.90;;;;;;5053415;28;20036;-77
2024/01/24 04:13:58;;;;;;;0.68;0.68;;;12.70;99.90;;;;;;5053160;28;20032;-78
2024/01/24 04:16:23;;;;;;;2.42;0.30;;;12.80;99.90;;;;;;5055191;28;20037;-78
2024/01/24 04:18:52;;;;;;;8.20;1.75;;;12.80;99.90;;;;;;5033693;28;20028;-77
2024/01/24 04:21:18;;;;;;;4.50;1.70;;;12.70;99.90;;;;;;5050967;28;20025;-77
2024/01/24 04:23:44;;;;;;;0.57;0.57;;;12.80;99.90;;;;;;5050850;28;20021;-77
2024/01/24 04:26:10;;;;;;;4.20;0.40;;;12.90;99.90;;;;;;5051178;28;20446;-77
2024/01/24 04:28:36;;;;;;;1.48;0.30;;;12.90;99.90;;;;;;5050721;28;20021;-78
2024/01/24 04:31:01;;;;;;;0.47;0.22;;;12.90;99.90;;;;;;5037543;28;20123;-77
2024/01/24 04:33:27;;;;;;;0.95;0.85;;;12.90;99.90;;;;;;5069832;28;20092;-77
2024/01/24 04:35:55;;;;;;;0.10;0.10;;;12.90;99.90;;;;;;5070695;28;20020;-76
2024/01/24 04:38:21;;;;;;;1.70;0.30;;;12.90;99.90;;;;;;5069429;28;20035;-77
2024/01/24 04:40:46;;;;;;;0.68;0.40;;;12.80;99.90;;;;;;5070635;28;20117;-77
2024/01/24 04:43:12;;;;;;;2.90;0.40;;;12.90;99.90;;;;;;5068999;28;20020;-77
2024/01/24 04:45:38;;;;;;;2.08;0.40;;;12.90;99.90;;;;;;5070715;28;20385;-77
2024/01/24 04:48:05;;;;;;;0.13;0.13;;;12.90;99.90;;;;;;5071072;28;20679;-77
2024/01/24 04:50:31;;;;;;;0.30;0.20;;;13.00;99.90;;;;;;5069258;28;20123;-78
2024/01/24 04:52:57;;;;;;;0.75;0.50;;;13.10;99.90;;;;;;5070620;28;20104;-77
2024/01/24 04:55:22;;;;;;;1.25;0.30;;;13.10;99.90;;;;;;5069235;28;20524;-77
2024/01/24 04:57:48;;;;;;;0.90;0.30;;;13.00;99.90;;;;;;5070178;28;20043;-77
2024/01/24 05:00:14;;;;;;;0.40;0.25;;;13.10;99.90;;;;;;5069118;28;20115;-77
2024/01/24 05:02:40;;;;;;;0.25;0.20;;;13.10;99.90;;;;;;5068844;28;20024;-77
2024/01/24 05:05:06;;;;;;;0.40;0.40;;;13.00;99.90;;;;;;5070514;28;20100;-77
2024/01/24 05:07:35;;;;;;;0.88;0.40;;;12.90;99.90;;;;;;5070361;28;20046;-77
2024/01/24 05:10:03;;;;;;;1.10;0.40;;;12.80;99.90;;;;;;5070375;28;20496;-77
2024/01/24 05:12:29;;;;;;;0.47;0.20;;;12.70;99.90;;;;;;5070069;28;20025;-77
2024/01/24 05:14:55;;;;;;;2.75;0.40;;;12.70;99.90;;;;;;5070224;28;20024;-77
2024/01/24 05:17:21;;;;;;;0.50;0.50;;;12.80;99.90;;;;;;5069775;28;20036;-78
2024/01/24 05:19:48;;;;;;;3.33;1.35;;;12.90;99.90;;;;;;5070000;28;20057;-77
2024/01/24 05:22:15;;;;;;;0.75;0.10;;;13.00;99.90;;;;;;5072281;28;20486;-78
2024/01/24 05:24:44;;;;;;;0.80;0.30;;;13.10;99.90;;;;;;5070171;28;20404;-77
2024/01/24 05:27:10;;;;;;;1.20;0.55;;;13.10;99.90;;;;;;5067701;28;20028;-77
2024/01/24 05:29:36;;;;;;;0.57;0.22;;;13.20;99.90;;;;;;5066539;28;20381;-77
2024/01/24 05:32:02;;;;;;;0.22;0.13;;;13.20;99.90;;;;;;5066632;28;20056;-77
2024/01/24 05:34:27;;;;;;;0.88;0.30;;;13.20;99.90;;;;;;5068351;28;20488;-76
2024/01/24 05:36:53;;;;;;;0.93;0.35;;;13.20;99.90;;;;;;5065359;28;20372;-75
2024/01/24 05:39:19;;;;;;;0.55;0.40;;;13.30;99.90;;;;;;5067201;28;20021;-77
2024/01/24 05:41:45;;;;;;;0.25;0.25;;;13.30;99.90;;;;;;5072279;28;20028;-75
2024/01/24 05:44:11;;;;;;;1.00;0.30;;;13.30;99.90;;;;;;5086866;28;20633;-75
2024/01/24 05:46:36;;;;;;;0.40;0.40;;;13.30;99.90;;;;;;5087533;28;20027;-77
2024/01/24 05:49:02;;;;;;;2.78;0.25;;;13.30;99.90;;;;;;5087915;28;20090;-78
2024/01/24 05:51:28;;;;;;;0.40;0.20;;;13.30;99.90;;;;;;5086454;28;20035;-74
2024/01/24 05:53:59;;;;;;;0.75;0.30;;;13.30;99.90;;;;;;5083855;28;20055;-77
2024/01/24 05:56:25;;;;;;;0.20;0.20;;;13.30;99.90;;;;;;5066870;28;20041;-76
2024/01/24 05:58:51;;;;;;;2.95;0.65;;;13.30;99.90;;;;;;5069069;28;20032;-75
2024/01/24 06:01:16;;;;;;;1.25;0.30;;;13.20;99.90;;;;;;5069801;28;20029;-75
2024/01/24 06:03:42;;;;;;;0.32;0.10;;;13.20;99.90;;;;;;5069332;28;20021;-74
2024/01/24 06:06:08;;;;;;;1.73;0.20;;;13.20;99.90;;;;;;5069647;28;20497;-77
2024/01/24 06:08:33;;;;;;;5.93;1.50;;;13.20;99.90;;;;;;5069716;28;20028;-74
2024/01/24 06:10:59;;;;;;;0.70;0.30;;;13.20;99.90;;;;;;5069278;28;20127;-77
2024/01/24 06:13:25;;;;;;;1.08;0.30;;;13.20;99.90;;;;;;5069141;28;20044;-75
2024/01/24 06:15:51;;;;;;;1.02;0.30;;;13.20;99.90;;;;;;5069439;28;20074;-75
2024/01/24 06:18:17;;;;;;;0.63;0.57;;;13.20;99.90;;;;;;5069311;28;20106;-74
2024/01/24 06:20:43;;;;;;;2.33;0.35;;;13.20;99.90;;;;;;5069263;28;20088;-76
2024/01/24 06:23:09;;;;;;;2.55;0.20;;;13.20;99.90;;;;;;5067806;28;20035;-74
2024/01/24 06:25:35;;;;;;;0.10;0.10;;;13.10;99.90;;;;;;5069506;28;20423;-77
2024/01/24 06:28:01;;;;;;;0.52;0.20;;;13.00;99.90;;;;;;5067615;28;20025;-80
2024/01/24 06:30:26;;;;;;;1.02;0.57;;;12.90;99.90;;;;;;5074007;28;20012;-77
2024/01/24 06:32:52;;;;;;;0.40;0.22;;;12.80;99.90;;;;;;5069821;28;20489;-77
2024/01/24 06:35:18;;;;;;;1.00;0.20;;;12.70;99.90;;;;;;5068694;28;20021;-76
2024/01/24 06:37:43;;;;;;;0.52;0.40;;;12.70;99.90;;;;;;5069051;28;20055;-77
2024/01/24 06:40:09;;;;;;;0.70;0.30;;;12.70;99.90;;;;;;5068711;28;20032;-78
2024/01/24 06:42:36;;;;;;;0.47;0.20;;;12.80;99.90;;;;;;5071097;28;20029;-77
2024/01/24 06:45:03;;;;;;;3.53;0.40;;;12.90;99.90;;;;;;5072869;28;20036;-75
2024/01/24 06:47:28;;;;;;;3.45;0.30;;;12.90;99.90;;;;;;5073062;28;20020;-76
2024/01/24 06:49:54;;;;;;;0.50;0.25;;;12.90;99.90;;;;;;5073422;28;20047;-75
2024/01/24 06:52:20;;;;;;;0.22;0.22;;;13.00;99.90;;;;;;5076147;28;20032;-76
2024/01/24 06:54:45;;;;;;;0.55;0.25;;;12.90;99.90;;;;;;5054690;28;20025;-76
2024/01/24 06:57:11;;;;;;;2.38;0.20;;;13.00;99.90;;;;;;5072173;28;20072;-77
2024/01/24 06:59:37;;;;;;;0.35;0.20;;;13.00;99.90;;;;;;5054872;28;20123;-77
2024/01/24 07:02:05;;;;;;;0.70;0.25;;;12.90;99.90;;;;;;5054341;28;20024;-77
2024/01/24 07:04:32;;;;;;;0.38;0.30;;;12.80;99.90;;;;;;5054591;28;20025;-77
2024/01/24 07:06:57;;;;;;;0.73;0.20;;;12.70;99.90;;;;;;5054567;28;20024;-77
2024/01/24 07:09:23;;;;;;;0.43;0.15;;;12.60;99.90;;;;;;5054218;28;20024;-77
2024/01/24 07:11:49;;;;;;;0.10;0.10;;;12.60;99.90;;;;;;5072102;28;20025;-77
2024/01/24 07:14:14;;;;;;;2.83;0.20;;;12.60;99.90;;;;;;5054403;28;20031;-77
2024/01/24 07:16:43;;;;;;;1.10;0.30;;;12.60;99.90;;;;;;5054173;28;20261;-79
2024/01/24 07:19:08;;;;;;;2.83;0.40;;;12.60;99.90;;;;;;5054035;28;20025;-77
2024/01/24 07:21:34;;;;;;;0.13;0.13;;;12.60;99.90;;;;;;5072209;28;20047;-76
2024/01/24 07:23:59;;;;;;;2.85;0.40;;;12.60;99.90;;;;;;5054114;28;20118;-77
2024/01/24 07:26:25;;;;;;;0.10;0.10;;;12.60;99.90;;;;;;5071933;28;20484;-77
2024/01/24 07:28:52;;;;;;;0.10;0.10;;;12.60;99.90;;;;;;5053647;28;20057;-77
2024/01/24 07:31:17;;;;;;;0.60;0.20;;;12.70;99.90;;;;;;5050753;28;20043;-78
2024/01/24 07:33:43;;;;;;;0.22;0.22;;;12.70;99.90;;;;;;5071980;28;20025;-77
2024/01/24 07:36:09;;;;;;;1.10;0.30;;;12.70;99.90;;;;;;5071835;28;20040;-78
2024/01/24 07:38:35;;;;;;;1.75;0.20;;;12.80;99.90;;;;;;5070793;28;20021;-77
2024/01/24 07:41:00;;;;;;;0.03;0.00;;;12.80;99.90;;;;;;5071864;28;20025;-78
2024/01/24 07:43:26;;;;;;;0.10;0.03;;;12.70;99.90;;;;;;5069768;28;20020;-76
2024/01/24 07:45:51;;;;;;;1.10;0.10;;;12.70;99.90;;;;;;5072493;28;20032;-77
2024/01/24 07:48:17;;;;;;;0.00;0.00;;;12.70;99.90;;;;;;5071019;28;20016;-77
2024/01/24 07:50:43;;;;;;;0.88;0.20;;;12.70;99.90;;;;;;5071347;28;20065;-77
2024/01/24 07:53:09;;;;;;;0.10;0.10;;;12.70;99.90;;;;;;5069739;28;20031;-77
2024/01/24 07:55:35;;;;;;;0.08;0.00;;;12.70;99.90;;;;;;5087450;28;20493;-77
2024/01/24 07:58:01;;;;;;;0.25;0.10;;;12.80;99.90;;;;;;5089848;28;20040;-77
2024/01/24 08:00:27;;;;;;;0.10;0.10;;;12.70;99.90;;;;;;5090266;28;20020;-78
2024/01/24 08:02:52;;;;;;;0.30;0.10;;;12.80;99.90;;;;;;5090184;28;20024;-77
2024/01/24 08:05:19;;;;;;;0.30;0.20;;;12.80;99.90;;;;;;5089745;28;20473;-78
2024/01/24 08:07:45;;;;;;;0.90;0.30;;;12.70;99.90;;;;;;5090081;28;20095;-78
2024/01/24 08:10:10;;;;;;;0.15;0.15;;;12.80;99.90;;;;;;5090092;28;20102;-77
2024/01/24 08:12:40;;;;;;;0.10;0.10;;;12.80;99.90;;;;;;5094523;28;20043;-75
2024/01/24 08:15:07;;;;;;;0.20;0.20;;;12.90;99.90;;;;;;5101706;28;20078;-75
2024/01/24 08:17:34;;;;;;;0.10;0.10;;;12.80;99.90;;;;;;5098427;28;20372;-77
2024/01/24 08:19:59;;;;;;;0.85;0.10;;;12.90;99.90;;;;;;5091491;28;20813;-75
2024/01/24 08:22:28;;;;;;;0.17;0.17;;;12.90;99.90;;;;;;5097106;28;20133;-75
2024/01/24 08:24:54;;;;;;;0.10;0.10;;;13.00;99.90;;;;;;5082435;28;20051;-75
2024/01/24 08:27:20;;;;;;;2.63;0.15;;;13.00;99.90;;;;;;5080977;28;20059;-75
2024/01/24 08:29:45;;;;;;;0.17;0.15;;;12.90;99.90;;;;;;5079497;28;20052;-75
2024/01/24 08:32:11;;;;;;;1.45;0.38;;;13.00;99.90;;;;;;5067339;28;20056;-77
2024/01/24 08:34:37;;;;;;;0.63;0.05;;;13.00;99.90;;;;;;5059532;28;20048;-75
2024/01/24 08:37:03;;;;;;;2.10;0.20;;;13.10;99.90;;;;;;5060830;28;20036;-74
2024/01/24 08:39:29;;;;;;;0.28;0.13;;;13.10;99.90;;;;;;5055529;28;20450;-74
2024/01/24 08:41:55;;;;;;;0.38;0.10;;;13.10;99.90;;;;;;5050204;28;20079;-75
2024/01/24 08:44:20;;;;;;;0.40;0.10;;;13.20;99.90;;;;;;5050772;28;20020;-76
2024/01/24 08:46:47;;;;;;;0.15;0.15;;;13.20;99.90;;;;;;5032341;28;20021;-74
2024/01/24 08:49:12;;;;;;;0.25;0.00;;;13.20;99.90;;;;;;5051828;28;20021;-74
2024/01/24 08:51:39;;;;;;;0.22;0.10;;;13.20;99.90;;;;;;5055294;28;20291;-78
2024/01/24 08:54:04;;;;;;;0.03;0.03;;;13.20;99.90;;;;;;5042805;28;20025;-77
2024/01/24 08:56:30;;;;;;;0.20;0.13;;;13.20;99.90;;;;;;5039503;28;20063;-78
2024/01/24 08:58:56;;;;;;;0.20;0.20;;;13.20;99.90;;;;;;5058730;28;20088;-77
2024/01/24 09:01:22;;;;;;;0.55;0.20;;;13.20;99.90;;;;;;5061216;28;20525;-77
2024/01/24 09:03:49;;;;;;;0.20;0.20;;;13.30;99.90;;;;;;5058254;28;20028;-78
2024/01/24 09:06:15;;;;;;;0.20;0.20;;;13.30;99.90;;;;;;5042660;28;20449;-78
2024/01/24 09:08:43;;;;;;;0.03;0.03;;;13.30;99.90;;;;;;5042201;28;20091;-78
2024/01/24 09:11:09;;;;;;;0.00;0.00;;;13.20;99.90;;;;;;5058886;28;20044;-80
2024/01/24 09:13:34;;;;;;;0.10;0.10;;;13.10;99.90;;;;;;5040622;28;20017;-78
2024/01/24 09:16:03;;;;;;;0.47;0.10;;;12.90;99.90;;;;;;5041642;28;20035;-79
2024/01/24 09:18:29;;;;;;;0.00;0.00;;;12.80;99.90;;;;;;5037025;28;20029;-78
2024/01/24 09:20:55;;;;;;;0.10;0.10;;;12.70;99.90;;;;;;5032577;28;20029;-79
2024/01/24 09:23:22;;;;;;;0.10;0.10;;;12.60;99.90;;;;;;5032194;28;20048;-78
2024/01/24 09:25:47;;;;;;;0.10;0.10;;;12.50;99.90;;;;;;5031886;28;20029;-77
2024/01/24 09:28:13;;;;;;;0.20;0.03;;;12.50;99.90;;;;;;5054296;28;20021;-77
2024/01/24 09:30:39;;;;;;;0.00;0.00;;;12.40;99.90;;;;;;5056827;28;20472;-77
2024/01/24 09:33:05;;;;;;;0.28;0.05;;;12.40;99.90;;;;;;5053231;28;20028;-77
2024/01/24 09:35:31;;;;;;;1.00;0.08;;;12.40;99.90;;;;;;5061168;28;20159;-77
2024/01/24 09:37:57;;;;;;;0.10;0.10;;;12.40;99.90;;;;;;5070609;28;20040;-77
2024/01/24 09:40:23;;;;;;;0.22;0.17;;;12.40;99.90;;;;;;5069432;28;20095;-77
2024/01/24 09:42:49;;;;;;;0.10;0.10;;;12.50;99.90;;;;;;5069216;28;20024;-77
2024/01/24 09:45:18;;;;;;;0.13;0.13;;;12.60;99.90;;;;;;5055173;28;20394;-78
2024/01/24 09:47:47;;;;;;;1.85;0.20;;;12.80;99.90;;;;;;5052657;28;20025;-76
2024/01/24 09:50:14;;;;;;;0.23;0.20;;;12.90;99.90;;;;;;5074344;28;20032;-77
2024/01/24 09:52:41;;;;;;;0.28;0.10;;;11.50;99.90;;;;;;5073151;28;20112;-77
2024/01/24 09:55:09;;;;;;;0.10;0.10;;;13.10;99.90;;;;;;5051301;28;20025;-78
2024/01/24 09:57:41;;;;;;;0.10;0.10;;;13.20;99.90;;;;;;5036230;28;20037;-77
2024/01/24 10:00:09;;;;;;;0.03;0.03;;;13.30;99.90;;;;;;5034411;28;20078;-77
2024/01/24 10:02:35;;;;;;;0.10;0.10;;;13.40;99.90;;;;;;5053132;28;20033;-78
2024/01/24 10:05:04;;;;;;;0.20;0.20;;;13.40;99.90;;;;;;5040578;28;20033;-79
2024/01/24 10:07:30;;;;;;;0.13;0.13;;;13.50;99.90;;;;;;5040540;28;20362;-79
2024/01/24 10:10:06;;;;;;;0.10;0.10;;;13.60;99.90;;;;;;5040909;28;20024;-77
2024/01/24 10:12:32;;;;;;;1.02;0.20;;;13.60;99.90;;;;;;5059437;28;20029;-78
2024/01/24 10:14:58;;;;;;;0.28;0.10;;;13.70;99.90;;;;;;5035466;28;20044;-79
2024/01/24 10:17:23;;;;;;;0.22;0.10;;;13.80;99.90;;;;;;5052912;28;20489;-78
2024/01/24 10:19:50;;;;;;;0.20;0.10;;;13.80;99.90;;;;;;5035497;28;20078;-78
2024/01/24 10:22:16;;;;;;;0.20;0.20;;;13.90;99.90;;;;;;5035558;28;20036;-78
2024/01/24 10:24:44;;;;;;;0.10;0.10;;;14.00;99.90;;;;;;5035576;28;20063;-78
2024/01/24 10:27:28;;;;;;;1.90;0.10;;;14.10;99.90;;;;;;5035027;28;20441;-78
2024/01/24 10:29:57;;;;;;;0.00;0.00;;;14.10;99.90;;;;;;5035363;28;20035;-78
2024/01/24 10:32:24;;;;;;;0.00;0.00;;;14.10;99.90;;;;;;5052986;28;20044;-79
2024/01/24 10:34:50;;;;;;;0.10;0.10;;;14.10;99.90;;;;;;5035046;28;20509;-78
2024/01/24 10:37:18;;;;;;;0.05;0.05;;;14.10;99.90;;;;;;5029052;28;20417;-79
2024/01/24 10:39:44;;;;;;;0.17;0.10;;;14.00;99.90;;;;;;5035327;28;20231;-78
2024/01/24 10:42:12;;;;;;;0.00;0.00;;;14.00;99.90;;;;;;5052704;28;20116;-78
2024/01/24 10:44:44;;;;;;;0.13;0.10;;;14.00;99.90;;;;;;5034807;28;20113;-77
2024/01/24 10:47:13;;;;;;;1.70;0.30;;;14.10;99.90;;;;;;5055586;28;20025;-82
2024/01/24 10:49:42;;;;;;;2.65;0.20;;;14.10;99.90;;;;;;5057350;28;20027;-80
2024/01/24 10:52:25;;;;;;;0.20;0.20;;;13.70;99.90;;;;;;5055907;28;20029;-77
2024/01/24 10:55:25;;;;;;;0.00;0.00;;;14.00;99.90;;;;;;5052506;28;20048;-78
2024/01/24 10:57:53;;;;;;;1.20;0.03;;;14.10;99.90;;;;;;5040355;28;20061;-77
2024/01/24 11:00:22;;;;;;;0.43;0.20;;;14.10;99.90;;;;;;5035948;28;20027;-76
2024/01/24 11:03:03;;;;;;;0.10;0.10;;;14.10;99.90;;;;;;5054739;28;20009;-76
2024/01/24 11:05:43;;;;;;;0.10;0.10;;;14.10;99.90;;;;;;5059247;28;20052;-78
2024/01/24 11:08:33;;;;;;;0.10;0.10;;;14.10;99.90;;;;;;5060091;28;20045;-77
2024/01/24 11:11:07;;;;;;;0.80;0.10;;;14.30;99.90;;;;;;5062545;28;20021;-74
2024/01/24 11:13:37;;;;;;;0.20;0.10;;;14.10;99.90;;;;;;5062752;28;20366;-76
2024/01/24 11:16:34;;;;;;;0.00;0.00;;;14.10;99.90;;;;;;5063272;28;20032;-74
2024/01/24 11:19:26;;;;;;;0.38;0.10;;;14.20;99.90;;;;;;5062295;28;20069;-75
2024/01/24 11:21:53;;;;;;;0.17;0.17;;;14.30;99.90;;;;;;5062481;28;20224;-77
2024/01/24 11:24:42;;;;;;;0.20;0.10;;;14.30;99.90;;;;;;5044231;28;20021;-77
2024/01/24 11:27:34;;;;;;;0.20;0.10;;;14.30;99.90;;;;;;5043995;28;20032;-78
2024/01/24 11:30:06;;;;;;;1.08;0.10;;;14.30;99.90;;;;;;5061964;28;20027;-76
2024/01/24 11:32:44;;;;;;;0.00;0.00;;;14.30;99.90;;;;;;5062393;28;20122;-76
2024/01/24 11:35:31;;;;;;;0.00;0.00;;;14.30;99.90;;;;;;5061661;28;20040;-76
2024/01/24 11:38:07;;;;;;;0.10;0.10;;;14.40;99.90;;;;;;5069165;28;20285;-76
2024/01/24 11:40:34;;;;;;;0.00;0.00;;;14.50;99.90;;;;;;5082254;28;20023;-76
2024/01/24 11:43:00;;;;;;;0.10;0.08;;;14.40;99.90;;;;;;5079108;28;20055;-76
2024/01/24 11:45:27;;;;;;;0.45;0.15;;;14.40;99.90;;;;;;5081772;28;20024;-77
2024/01/24 11:47:57;;;;;;;2.72;0.20;;;14.50;99.90;;;;;;5058752;28;20040;-77
2024/01/24 11:50:23;;;;;;;0.00;0.00;;;14.50;99.90;;;;;;5061826;28;20320;-76
2024/01/24 11:52:49;;;;;;;0.70;0.10;;;14.50;99.90;;;;;;5059662;28;20744;-77
2024/01/24 11:55:15;;;;;;;0.10;0.10;;;14.50;99.90;;;;;;5033458;28;20072;-76
2024/01/24 11:57:41;;;;;;;0.25;0.25;;;14.40;99.90;;;;;;5050763;28;20057;-77
2024/01/24 12:00:09;;;;;;;0.00;0.00;;;14.50;99.90;;;;;;5049443;28;20878;-76
2024/01/24 12:02:36;;;;;;;0.20;0.00;;;14.60;99.90;;;;;;5051715;28;20028;-76
2024/01/24 12:05:03;;;;;;;0.10;0.10;;;14.60;99.90;;;;;;5053161;28;20407;-76
2024/01/24 12:07:29;;;;;;;0.20;0.20;;;14.50;99.90;;;;;;5071041;28;20469;-75
2024/01/24 12:09:55;;;;;;;0.70;0.17;;;14.50;99.90;;;;;;5071033;28;20040;-75
2024/01/24 12:12:23;;;;;;;0.15;0.00;;;14.50;99.90;;;;;;5050751;28;20036;-76
2024/01/24 12:14:49;;;;;;;0.00;0.00;;;14.40;99.90;;;;;;5051096;28;20021;-76
2024/01/24 12:17:15;;;;;;;1.15;0.20;;;14.40;99.90;;;;;;5070000;28;20115;-77
2024/01/24 12:19:44;;;;;;;0.10;0.10;;;14.30;99.90;;;;;;5072497;28;20448;-77
2024/01/24 12:22:12;;;;;;;0.30;0.10;;;14.20;99.90;;;;;;5074504;28;20364;-77
2024/01/24 12:24:41;;;;;;;0.85;0.32;;;14.30;99.90;;;;;;5075101;28;20088;-77
2024/01/24 12:27:07;;;;;;;;;;;14.40;99.90;;;;;;5040778;28;20028;-76
2024/01/24 12:29:33;;;;;;;0.40;0.10;;;14.40;99.90;;;;;;5042691;28;19939;-77
2024/01/24 12:32:01;;;;;;;1.08;0.08;;;14.40;99.90;;;;;;5063804;28;20041;-77
2024/01/24 12:34:30;;;;;;;0.10;0.10;;;14.40;99.90;;;;;;5061228;28;20229;-77
2024/01/24 12:37:00;;;;;;;0.00;0.00;;;14.20;99.90;;;;;;5059609;28;20112;-76
2024/01/24 12:39:31;;;;;;;0.22;0.00;;;14.20;99.90;;;;;;5055911;28;20040;-77
2024/01/24 12:41:58;;;;;;;2.60;1.30;;;14.00;99.90;;;;;;5036082;28;20071;-77
2024/01/24 12:44:23;;;;;;;0.65;0.17;;;13.90;99.90;;;;;;5067359;28;20038;-77
2024/01/24 12:47:00;;;;;;;0.25;0.25;;;13.90;99.90;;;;;;5062161;28;20099;-76
2024/01/24 12:49:27;;;;;;;0.10;0.10;;;14.00;99.90;;;;;;5075392;28;20032;-76
2024/01/24 12:51:53;;;;;;;0.22;0.22;;;14.20;99.90;;;;;;5044199;28;20237;-77
2024/01/24 12:54:20;;;;;;;0.00;0.00;;;14.30;99.90;;;;;;5058748;28;20430;-76
2024/01/24 12:56:50;;;;;;;0.08;0.00;;;14.20;99.90;;;;;;5039749;28;20028;-78
2024/01/24 12:59:15;;;;;;;2.83;0.20;;;14.00;99.90;;;;;;5060306;28;20291;-76
2024/01/24 13:01:42;;;;;;;0.25;0.10;;;13.70;99.90;;;;;;5066466;28;20025;-78
2024/01/24 13:04:08;;;;;;;1.30;0.43;;;13.70;99.90;;;;;;5059939;28;20119;-76
2024/01/24 13:06:36;;;;;;;0.35;0.35;;;13.60;99.90;;;;;;5047750;28;20037;-76
2024/01/24 13:09:03;;;;;;;0.15;0.15;;;13.50;99.90;;;;;;5079714;28;20317;-76
2024/01/24 13:11:32;;;;;;;2.60;1.00;;;13.40;99.90;;;;;;5079461;28;20128;-76
2024/01/24 13:14:01;;;;;;;1.30;0.73;;;13.40;99.90;;;;;;5060921;28;20029;-76
2024/01/24 13:16:29;;;;;;;0.30;0.30;;;13.60;99.90;;;;;;5079565;28;20051;-76
2024/01/24 13:18:56;;;;;;;0.50;0.50;;;13.70;99.90;;;;;;5079927;28;20050;-76
2024/01/24 13:21:24;;;;;;;2.83;1.08;;;13.80;99.90;;;;;;5061234;28;20209;-77
2024/01/24 13:23:51;;;;;;;3.05;1.52;;;13.90;99.90;;;;;;5079495;28;20028;-76
2024/01/24 13:26:17;;;;;;;1.63;0.98;;;13.90;99.90;;;;;;5071859;28;20013;-75
2024/01/24 13:28:43;;;;;;;0.63;0.30;;;13.90;99.90;;;;;;5041694;28;20060;-77
2024/01/24 13:31:08;;;;;;;2.45;1.58;;;13.80;99.90;;;;;;5048678;28;20021;-77
2024/01/24 13:33:34;;;;;;;7.03;1.52;;;13.90;99.90;;;;;;5079019;28;20335;-76
2024/01/24 13:36:00;;;;;;;1.13;0.60;;;14.10;99.90;;;;;;5079171;28;20243;-76
2024/01/24 13:38:28;;;;;;;0.68;0.65;;;14.10;99.90;;;;;;5100124;28;20032;-76
2024/01/24 13:40:54;;;;;;;0.43;0.28;;;14.10;99.90;;;;;;5095123;28;20070;-76
2024/01/24 13:43:23;;;;;;;1.45;0.65;;;14.10;99.90;;;;;;5079289;28;20218;-75
2024/01/24 13:45:49;;;;;;;0.43;0.30;;;14.00;99.90;;;;;;5079627;28;20024;-76
2024/01/24 13:48:15;;;;;;;0.03;0.03;;;13.80;99.90;;;;;;5075941;28;20590;-76